Time;durP1;ratioP1;P1;durP2;ratioP2;P2;SDS_P1;SDS_P2;PMS_P1;PMS_P2;Temp;Humidity;BMP_temperature;BMP_pressure;BME280_temperature;BME280_humidity;BME280_pressure;Samples;Min_cycle;Max_cycle;Signal;HPM_P1;HPM_P2
2023/08/28 07:01:43;;;;;;;0.10;0.10;;;21.60;99.90;24.20;101086.00;;;;6006798;23;1423751;-71
2023/08/28 07:04:12;;;;;;;1.13;1.05;;;21.80;99.90;25.10;101042.00;;;;6092243;23;20157;-71
2023/08/28 07:06:38;;;;;;;1.00;0.80;;;21.70;99.90;24.40;101055.00;;;;6092464;23;20152;-71
2023/08/28 07:09:25;;;;;;;0.75;0.68;;;21.40;99.90;21.90;101003.00;;;;6093051;23;20145;-69
2023/08/28 07:11:58;;;;;;;0.40;0.40;;;20.30;99.90;21.90;101003.00;;;;6091769;23;20173;-69
2023/08/28 07:14:27;;;;;;;0.20;0.20;;;19.60;99.90;21.90;101013.00;;;;6091931;23;20515;-70
2023/08/28 07:17:01;;;;;;;0.88;0.68;;;19.70;99.90;22.60;101022.00;;;;6094027;23;20141;-70
2023/08/28 07:19:28;;;;;;;0.60;0.60;;;19.50;99.90;24.40;101047.00;;;;6092216;23;20148;-70
2023/08/28 07:22:00;;;;;;;0.10;0.10;;;20.70;99.90;25.10;101056.00;;;;6092416;23;20499;-71
2023/08/28 07:24:30;;;;;;;1.35;1.00;;;21.50;99.90;25.10;101056.00;;;;6116332;23;20207;-70
2023/08/28 07:26:59;;;;;;;0.20;0.20;;;21.60;99.90;22.60;101057.00;;;;6092230;23;20227;-70
2023/08/28 07:29:45;;;;;;;0.10;0.10;;;20.70;99.90;25.70;101046.00;;;;6093903;23;20486;-71
2023/08/28 07:32:13;;;;;;;0.15;0.15;;;21.10;99.90;28.80;101103.00;;;;6092214;23;20486;-69
2023/08/28 07:34:39;;;;;;;0.10;0.10;;;23.50;99.90;30.90;101102.00;;;;6092074;23;20165;-69
2023/08/28 07:37:06;;;;;;;0.10;0.10;;;25.60;99.90;32.40;101087.00;;;;6067834;23;20161;-71
2023/08/28 07:39:31;;;;;;;0.10;0.10;;;27.20;99.90;33.30;101069.00;;;;6092197;23;20228;-71
2023/08/28 07:41:58;;;;;;;0.10;0.10;;;28.20;99.90;34.10;101061.00;;;;6093422;23;20201;-70
2023/08/28 07:44:26;;;;;;;0.10;0.10;;;29.00;99.90;34.50;101048.00;;;;6092306;23;20156;-70
2023/08/28 07:46:55;;;;;;;0.10;0.10;;;29.70;99.90;32.30;101069.00;;;;6093973;23;20172;-71
2023/08/28 07:49:21;;;;;;;0.10;0.10;;;28.80;99.90;33.10;101062.00;;;;6091858;23;20573;-70
2023/08/28 07:51:50;;;;;;;0.10;0.10;;;28.70;99.90;33.40;101060.00;;;;6092047;23;20189;-71
2023/08/28 07:54:16;;;;;;;0.10;0.10;;;28.70;99.90;34.50;101044.00;;;;6092206;23;20263;-71
2023/08/28 07:56:47;;;;;;;0.35;0.35;;;29.40;99.90;35.00;101032.00;;;;6093935;23;20168;-71
2023/08/28 07:59:13;;;;;;;0.10;0.10;;;30.10;99.90;35.80;101006.00;;;;6091157;23;20172;-69
2023/08/28 08:01:48;;;;;;;0.05;0.05;;;30.60;99.90;34.40;101070.00;;;;6122212;23;20164;-69
2023/08/28 08:04:14;;;;;;;0.10;0.10;;;30.50;99.90;35.10;101059.00;;;;6097131;23;20167;-71
2023/08/28 08:06:48;;;;;;;0.10;0.10;;;30.30;99.90;34.80;101061.00;;;;6122579;23;20148;-71
2023/08/28 08:09:17;;;;;;;0.10;0.10;;;30.20;99.90;34.00;101090.00;;;;6097162;23;20580;-71
2023/08/28 08:11:43;;;;;;;0.10;0.10;;;29.80;99.90;32.90;101115.00;;;;6097007;23;20176;-71
2023/08/28 08:14:09;;;;;;;0.10;0.10;;;29.30;99.90;34.00;101096.00;;;;6073003;23;20164;-71
2023/08/28 08:16:43;;;;;;;0.10;0.10;;;29.30;99.90;34.00;101103.00;;;;6097047;23;20167;-71
2023/08/28 08:19:16;;;;;;;0.00;0.00;;;29.50;99.90;34.30;101111.00;;;;6096645;23;20149;-71
2023/08/28 08:21:50;;;;;;;0.10;0.10;;;29.60;99.90;34.10;101116.00;;;;6122236;23;20240;-71
2023/08/28 08:24:15;;;;;;;0.10;0.10;;;29.50;99.90;34.50;101092.00;;;;6074206;23;20164;-71
2023/08/28 08:26:41;;;;;;;0.10;0.10;;;29.90;99.90;34.90;101110.00;;;;6122814;23;20218;-70
2023/08/28 08:29:15;;;;;;;0.10;0.10;;;29.90;99.90;34.10;101136.00;;;;6096761;23;20149;-71
2023/08/28 08:31:41;;;;;;;0.10;0.10;;;29.70;99.90;34.40;101104.00;;;;6096975;23;20192;-72
2023/08/28 08:34:07;;;;;;;0.10;0.10;;;29.70;99.90;34.70;101160.00;;;;6122797;23;20145;-71
2023/08/28 08:36:36;;;;;;;0.10;0.10;;;29.70;99.90;33.90;101107.00;;;;6096801;23;20152;-71
2023/08/28 08:39:04;;;;;;;0.20;0.20;;;29.50;99.90;32.80;101122.00;;;;6097109;23;20141;-71
2023/08/28 08:41:33;;;;;;;0.10;0.10;;;29.20;99.90;32.50;101125.00;;;;6096358;23;20161;-71
2023/08/28 08:44:04;;;;;;;0.20;0.20;;;28.40;99.90;32.70;101131.00;;;;6096840;23;20144;-71
2023/08/28 08:46:31;;;;;;;0.20;0.20;;;28.30;99.90;33.00;101133.00;;;;6096914;23;20156;-72
2023/08/28 08:49:21;;;;;;;0.35;0.35;;;28.40;99.90;33.40;101124.00;;;;6097065;23;20579;-71
2023/08/28 08:52:04;;;;;;;0.10;0.10;;;28.70;99.90;32.40;101129.00;;;;6072413;23;20588;-72
2023/08/28 08:54:41;;;;;;;0.10;0.10;;;28.90;99.90;29.00;101173.00;;;;6096865;23;20194;-71
2023/08/28 08:57:42;;;;;;;0.10;0.10;;;25.90;99.90;30.90;101169.00;;;;6096564;23;20149;-71
2023/08/28 09:00:20;;;;;;;0.10;0.10;;;26.10;99.90;30.90;101167.00;;;;6097312;23;20591;-71
2023/08/28 09:02:47;;;;;;;0.10;0.10;;;26.40;99.90;30.30;101172.00;;;;6071719;23;20211;-69
2023/08/28 09:05:26;;;;;;;0.20;0.20;;;26.70;99.90;30.90;101166.00;;;;6096765;23;20149;-70
2023/08/28 09:08:03;;;;;;;0.10;0.10;;;26.50;99.90;28.10;101200.00;;;;6072987;23;20196;-71
2023/08/28 09:10:57;;;;;;;2.45;1.45;;;25.10;99.90;30.10;101178.00;;;;6098403;23;20164;-71
2023/08/28 09:13:46;;;;;;;0.20;0.20;;;25.40;99.90;28.80;101202.00;;;;6096682;23;20650;-72
2023/08/28 09:16:12;;;;;;;0.10;0.10;;;24.90;99.90;29.60;101156.00;;;;6095794;23;20228;-70
2023/08/28 09:18:43;;;;;;;0.28;0.28;;;25.20;99.90;30.20;101174.00;;;;6122093;23;20203;-71
2023/08/28 09:21:14;;;;;;;0.10;0.10;;;25.80;99.90;28.10;101216.00;;;;6072479;23;20161;-71
2023/08/28 09:24:07;;;;;;;0.10;0.10;;;24.60;99.90;28.00;101191.00;;;;6097392;23;20176;-71
2023/08/28 09:26:33;;;;;;;0.10;0.10;;;24.50;99.90;28.40;101214.00;;;;6096355;23;20164;-70
2023/08/28 09:29:30;;;;;;;0.10;0.10;;;24.30;99.90;28.70;101204.00;;;;6096572;23;20145;-71
2023/08/28 09:32:28;;;;;;;0.10;0.10;;;24.30;99.90;29.40;101202.00;;;;6100446;23;20156;-71
2023/08/28 09:35:11;;;;;;;0.30;0.30;;;24.70;99.90;28.20;101210.00;;;;6096009;23;20603;-70
2023/08/28 09:37:38;;;;;;;0.30;0.30;;;24.40;99.90;28.90;101213.00;;;;6072361;23;20156;-71
2023/08/28 09:40:04;;;;;;;0.10;0.10;;;24.60;99.90;29.10;101199.00;;;;6096335;23;20182;-71
2023/08/28 09:42:53;;;;;;;0.20;0.20;;;24.70;99.90;26.20;101202.00;;;;6096160;23;20203;-71
2023/08/28 09:45:37;;;;;;;1.02;0.93;;;23.90;99.90;25.20;101250.00;;;;6100764;23;20239;-71
2023/08/28 09:48:29;;;;;;;0.20;0.20;;;22.30;99.90;25.30;101280.00;;;;6096215;23;20145;-71
2023/08/28 09:51:04;;;;;;;0.20;0.10;;;22.00;99.90;24.50;101292.00;;;;6096415;23;20171;-71
2023/08/28 09:53:40;;;;;;;0.17;0.17;;;21.90;99.90;27.60;101238.00;;;;6095755;23;20168;-71
2023/08/28 09:56:09;;;;;;;0.10;0.10;;;22.90;99.90;26.60;101244.00;;;;6097450;23;20184;-72
2023/08/28 09:58:58;;;;;;;0.10;0.10;;;23.70;99.90;27.10;101254.00;;;;6122173;23;20145;-71
2023/08/28 10:01:33;;;;;;;0.63;0.40;;;23.50;99.90;24.90;101283.00;;;;6096094;23;20164;-70
2023/08/28 10:04:29;;;;;;;0.20;0.20;;;22.50;99.90;25.60;101271.00;;;;6095344;23;20164;-72
2023/08/28 10:06:57;;;;;;;1.10;1.10;;;22.20;99.90;25.50;101291.00;;;;6096383;23;20156;-71
2023/08/28 10:09:32;;;;;;;0.10;0.10;;;22.30;99.90;28.60;101228.00;;;;6072356;23;20596;-71
2023/08/28 10:12:06;;;;;;;0.10;0.10;;;23.70;99.90;27.20;101224.00;;;;6096225;23;20225;-72
2023/08/28 10:14:40;;;;;;;0.10;0.10;;;24.00;99.90;27.80;101249.00;;;;6122278;23;20199;-72
2023/08/28 10:17:29;;;;;;;0.10;0.10;;;23.80;99.90;28.90;101220.00;;;;6095350;23;20155;-72
2023/08/28 10:20:26;;;;;;;0.10;0.10;;;24.30;99.90;29.50;101186.00;;;;6095804;23;20151;-71
2023/08/28 10:33:37;;;;;;;0.65;0.30;;;26.40;99.90;28.10;101238.00;;;;5069955;28;20586;-70
2023/08/28 10:36:08;;;;;;;0.10;0.10;;;25.10;99.90;27.00;101228.00;;;;5049008;28;20611;-70
2023/08/28 10:38:43;;;;;;;0.10;0.10;;;25.00;99.90;29.40;101246.00;;;;5048936;28;20182;-70
2023/08/28 10:41:17;;;;;;;0.75;0.75;;;25.20;99.90;30.20;101240.00;;;;5029349;28;20182;-70
2023/08/28 10:43:43;;;;;;;0.10;0.10;;;25.80;99.90;30.70;101243.00;;;;5074233;28;20519;-68
2023/08/28 10:46:09;;;;;;;0.20;0.20;;;26.30;99.90;30.60;101246.00;;;;5029680;28;20191;-68
2023/08/28 10:48:39;;;;;;;0.10;0.10;;;26.40;99.90;30.90;101220.00;;;;5049483;28;20186;-68
2023/08/28 10:51:14;;;;;;;0.10;0.10;;;26.40;99.90;30.80;101236.00;;;;5035901;28;20257;-68
2023/08/28 10:53:53;;;;;;;0.13;0.13;;;26.50;99.90;30.20;101240.00;;;;5030500;28;20182;-67
2023/08/28 10:56:31;;;;;;;0.28;0.28;;;26.20;99.90;30.00;101251.00;;;;5024547;28;20219;-68
2023/08/28 10:59:24;;;;;;;0.30;0.25;;;25.80;99.90;29.70;101264.00;;;;5031944;28;20542;-68
2023/08/28 11:02:02;;;;;;;0.10;0.10;;;25.50;99.90;29.30;101251.00;;;;5038284;28;20199;-70
2023/08/28 11:04:39;;;;;;;0.10;0.10;;;25.20;99.90;29.20;101248.00;;;;5031013;28;20216;-71
2023/08/28 11:07:21;;;;;;;0.10;0.10;;;24.90;99.90;28.50;101278.00;;;;5033315;28;20186;-70
2023/08/28 11:09:50;;;;;;;0.28;0.28;;;24.60;99.90;28.80;101292.00;;;;5048383;28;20210;-70
2023/08/28 11:12:23;;;;;;;0.10;0.10;;;24.40;99.90;28.40;101256.00;;;;5048565;28;20214;-70
2023/08/28 11:14:55;;;;;;;0.20;0.20;;;24.40;99.90;28.40;101289.00;;;;5044681;28;20226;-70
2023/08/28 11:17:30;;;;;;;0.10;0.10;;;24.30;99.90;28.90;101273.00;;;;5045747;28;20615;-70
2023/08/28 11:19:59;;;;;;;0.10;0.10;;;24.40;99.90;28.90;101272.00;;;;5032916;28;20206;-71
2023/08/28 11:22:43;;;;;;;0.20;0.20;;;24.60;99.90;28.60;101276.00;;;;5047894;28;20273;-70
2023/08/28 11:25:14;;;;;;;0.10;0.10;;;24.60;99.90;29.10;101265.00;;;;5048019;28;20246;-71
2023/08/28 11:27:50;;;;;;;0.10;0.10;;;24.60;99.90;29.10;101228.00;;;;5048113;28;20271;-70
2023/08/28 11:30:21;;;;;;;0.10;0.10;;;24.70;99.90;29.00;101240.00;;;;5031311;28;20190;-72
2023/08/28 11:32:56;;;;;;;0.10;0.10;;;24.70;99.90;28.60;101274.00;;;;5043402;28;20225;-70
2023/08/28 11:35:27;;;;;;;0.10;0.10;;;24.60;99.90;29.40;101256.00;;;;5048461;28;20208;-71
2023/08/28 11:37:55;;;;;;;0.10;0.10;;;24.90;99.90;29.60;101240.00;;;;5048286;28;20192;-70
2023/08/28 11:40:30;;;;;;;0.10;0.10;;;25.00;99.90;29.90;101229.00;;;;5028175;28;20187;-70
2023/08/28 11:43:33;;;;;;;0.10;0.10;;;25.20;99.90;30.10;101177.00;;;;5074336;28;20655;-68
2023/08/28 11:46:09;;;;;;;0.10;0.10;;;25.50;99.90;29.80;101200.00;;;;5016697;28;20191;-68
2023/08/28 11:48:44;;;;;;;0.30;0.30;;;25.50;99.90;29.70;101200.00;;;;5033420;28;20264;-68
2023/08/28 11:51:13;;;;;;;0.10;0.10;;;25.40;99.90;29.70;101213.00;;;;5031714;28;20262;-68
2023/08/28 11:53:47;;;;;;;0.10;0.10;;;25.20;99.90;28.10;101204.00;;;;5018169;28;20262;-70
2023/08/28 11:56:16;;;;;;;0.10;0.10;;;24.70;99.90;29.00;101223.00;;;;5034612;28;20266;-70
2023/08/28 11:59:00;;;;;;;0.20;0.20;;;24.70;99.90;28.80;101224.00;;;;5035161;28;20187;-70
2023/08/28 12:01:28;;;;;;;0.10;0.10;;;24.60;99.90;29.50;101212.00;;;;5033913;28;20241;-70
2023/08/28 12:04:24;;;;;;;0.65;0.65;;;24.90;99.90;26.60;101244.00;;;;5018040;28;20630;-70
2023/08/28 12:06:59;;;;;;;0.60;0.60;;;24.00;99.90;25.90;101261.00;;;;5017845;28;20222;-70
2023/08/28 12:09:27;;;;;;;0.10;0.10;;;22.90;99.90;27.70;101248.00;;;;5017453;28;20195;-69
2023/08/28 12:11:56;;;;;;;0.20;0.20;;;23.30;99.90;27.40;101251.00;;;;5034101;28;20213;-70
2023/08/28 12:14:53;;;;;;;0.10;0.10;;;23.40;99.90;28.70;101220.00;;;;5031141;28;20175;-70
2023/08/28 12:17:26;;;;;;;0.10;0.10;;;23.90;99.90;29.20;101196.00;;;;5014374;28;20195;-70
2023/08/28 12:19:59;;;;;;;0.10;0.10;;;24.60;99.90;28.40;101215.00;;;;5030874;28;20183;-69
2023/08/28 12:22:34;;;;;;;0.30;0.30;;;24.40;99.90;28.10;101208.00;;;;5023868;28;20542;-70
2023/08/28 12:25:00;;;;;;;0.10;0.10;;;24.20;99.90;28.90;101208.00;;;;5033726;28;20186;-71
2023/08/28 12:27:30;;;;;;;0.77;0.77;;;24.50;99.90;28.40;101197.00;;;;5033464;28;20261;-70
2023/08/28 12:30:19;;;;;;;0.55;0.55;;;24.60;99.90;26.80;101249.00;;;;5017386;28;20232;-70
2023/08/28 12:32:53;;;;;;;0.20;0.20;;;23.70;99.90;26.70;101227.00;;;;5066638;28;20217;-70
2023/08/28 12:35:27;;;;;;;0.20;0.20;;;23.70;99.90;27.60;101174.00;;;;5024640;28;20186;-70
2023/08/28 12:37:59;;;;;;;1.00;0.40;;;23.50;99.90;26.30;101216.00;;;;5029272;28;20645;-70
2023/08/28 12:40:52;;;;;;;1.38;0.50;;;23.20;99.90;25.90;101265.00;;;;5033642;28;20221;-70
2023/08/28 12:43:21;;;;;;;0.13;0.13;;;22.60;99.90;27.60;101242.00;;;;5024368;28;20199;-70
2023/08/28 12:45:49;;;;;;;0.10;0.10;;;23.10;99.90;28.30;101199.00;;;;5033315;28;20183;-70
2023/08/28 12:48:19;;;;;;;0.10;0.10;;;23.80;99.90;27.90;101219.00;;;;5033576;28;20193;-70
2023/08/28 12:50:54;;;;;;;0.10;0.10;;;24.00;99.90;28.70;101203.00;;;;5033497;28;20191;-70
2023/08/28 12:53:21;;;;;;;0.10;0.10;;;24.40;99.90;29.30;101187.00;;;;5034471;28;20664;-69
2023/08/28 12:55:50;;;;;;;0.10;0.10;;;24.80;99.90;29.60;101187.00;;;;5032790;28;20206;-70
2023/08/28 12:58:17;;;;;;;0.10;0.10;;;25.10;99.90;30.00;101190.00;;;;5032958;28;20183;-70
2023/08/28 13:00:44;;;;;;;0.10;0.10;;;25.40;99.90;28.70;101207.00;;;;5033169;28;20278;-71
2023/08/28 13:03:17;;;;;;;0.57;0.55;;;25.00;99.90;27.60;101216.00;;;;5033085;28;20194;-70
2023/08/28 13:05:43;;;;;;;0.10;0.10;;;24.60;99.90;28.90;101220.00;;;;5029024;28;20261;-70
2023/08/28 13:08:11;;;;;;;0.20;0.20;;;24.50;99.90;30.20;101159.00;;;;5032743;28;20413;-70
2023/08/28 13:10:40;;;;;;;0.15;0.15;;;25.40;99.90;30.30;101181.00;;;;5016437;28;20190;-70
2023/08/28 13:13:06;;;;;;;0.10;0.10;;;25.90;99.90;30.80;101135.00;;;;5039069;28;20265;-68
2023/08/28 13:15:54;;;;;;;0.55;0.40;;;26.20;99.90;30.40;101189.00;;;;5031445;28;20178;-68
2023/08/28 13:18:29;;;;;;;0.10;0.10;;;26.30;99.90;29.30;101208.00;;;;5012519;28;20665;-67
2023/08/28 13:20:59;;;;;;;0.43;0.40;;;25.60;99.90;28.30;101235.00;;;;5026911;28;20245;-67
2023/08/28 13:23:32;;;;;;;0.43;0.43;;;25.30;99.90;27.00;101261.00;;;;5032733;28;20190;-69
2023/08/28 13:25:58;;;;;;;0.43;0.43;;;24.30;99.90;26.90;101269.00;;;;5033448;28;20194;-71
2023/08/28 13:28:31;;;;;;;0.45;0.45;;;23.60;99.90;26.00;101275.00;;;;5032594;28;20249;-69
2023/08/28 13:30:57;;;;;;;0.20;0.20;;;23.10;99.90;26.00;101291.00;;;;5032319;28;20187;-70
2023/08/28 13:33:26;;;;;;;0.25;0.25;;;22.80;99.90;26.20;101282.00;;;;5032479;28;20206;-68
2023/08/28 13:35:59;;;;;;;0.32;0.32;;;22.70;99.90;26.70;101266.00;;;;5032786;28;20182;-70
2023/08/28 13:38:29;;;;;;;0.30;0.30;;;22.90;99.90;25.50;101275.00;;;;5031894;28;20338;-69
2023/08/28 13:40:59;;;;;;;0.10;0.10;;;22.50;99.90;26.90;101264.00;;;;5002773;28;20215;-70
2023/08/28 13:43:45;;;;;;;0.35;0.35;;;22.80;99.90;27.20;101259.00;;;;5027748;28;20239;-69
2023/08/28 13:46:10;;;;;;;0.10;0.10;;;23.00;99.90;27.50;101243.00;;;;5016022;28;20182;-70
2023/08/28 13:48:36;;;;;;;0.13;0.13;;;23.30;99.90;28.00;101226.00;;;;5033067;28;20183;-70
2023/08/28 13:51:07;;;;;;;0.10;0.10;;;23.50;99.90;27.90;101233.00;;;;5040174;28;20236;-70
2023/08/28 13:53:33;;;;;;;0.10;0.10;;;23.50;99.90;27.40;101215.00;;;;5017036;28;20204;-70
2023/08/28 13:56:04;;;;;;;0.10;0.10;;;23.40;99.90;27.50;101239.00;;;;5031756;28;20266;-70
2023/08/28 13:59:05;;;;;;;0.10;0.10;;;23.40;99.90;28.20;101194.00;;;;5003404;28;20586;-69
2023/08/28 14:01:31;;;;;;;0.40;0.40;;;23.60;99.90;27.90;101231.00;;;;5031981;28;20269;-70
2023/08/28 14:04:06;;;;;;;0.10;0.10;;;23.80;99.90;28.20;101225.00;;;;5031928;28;20343;-70
2023/08/28 14:06:41;;;;;;;0.10;0.10;;;23.80;99.90;28.30;101219.00;;;;5030955;28;20187;-70
2023/08/28 14:09:10;;;;;;;0.50;0.50;;;23.90;99.90;27.90;101228.00;;;;5031718;28;20216;-69
2023/08/28 14:11:45;;;;;;;0.10;0.10;;;23.80;99.90;28.20;101227.00;;;;5031606;28;20748;-70
2023/08/28 14:14:11;;;;;;;0.75;0.63;;;23.90;99.90;28.30;101226.00;;;;5031411;28;20186;-70
2023/08/28 14:16:36;;;;;;;0.10;0.10;;;24.10;99.90;28.70;101218.00;;;;5033190;28;20695;-70
2023/08/28 14:19:22;;;;;;;0.35;0.20;;;24.30;99.90;27.70;101229.00;;;;5031766;28;20640;-70
2023/08/28 14:21:51;;;;;;;0.10;0.10;;;24.10;99.90;27.30;101226.00;;;;5015503;28;20185;-70
2023/08/28 14:24:23;;;;;;;0.20;0.20;;;23.60;99.90;27.70;101228.00;;;;5032538;28;20702;-70
2023/08/28 14:26:52;;;;;;;0.43;0.43;;;23.60;99.90;27.00;101212.00;;;;5033157;28;20191;-69
2023/08/28 14:29:18;;;;;;;0.10;0.10;;;23.20;99.90;27.60;101235.00;;;;5032632;28;20576;-68
2023/08/28 14:31:47;;;;;;;0.10;0.10;;;23.30;99.90;27.70;101228.00;;;;5031673;28;20228;-70
2023/08/28 14:34:20;;;;;;;0.45;0.45;;;23.50;99.90;26.80;101247.00;;;;5031353;28;20247;-70
2023/08/28 14:36:55;;;;;;;0.90;0.47;;;23.10;99.90;27.20;101237.00;;;;5032150;28;20213;-70
2023/08/28 14:39:21;;;;;;;0.10;0.10;;;23.10;99.90;27.80;101241.00;;;;5025938;28;20189;-70
2023/08/28 14:41:54;;;;;;;0.10;0.10;;;23.30;99.90;28.10;101239.00;;;;5032849;28;20195;-70
2023/08/28 14:44:20;;;;;;;0.30;0.30;;;23.50;99.90;28.00;101206.00;;;;5015450;28;20653;-70
2023/08/28 14:47:09;;;;;;;0.15;0.15;;;23.60;99.90;27.40;101233.00;;;;5031682;28;20179;-70
2023/08/28 14:49:37;;;;;;;0.35;0.35;;;23.60;99.90;27.50;101229.00;;;;5013771;28;20194;-69
2023/08/28 14:52:26;;;;;;;0.20;0.20;;;23.60;99.90;28.10;101192.00;;;;5032727;28;20278;-69
2023/08/28 14:55:18;;;;;;;0.38;0.38;;;23.70;99.90;28.20;101218.00;;;;5022424;28;20186;-70
2023/08/28 14:58:05;;;;;;;0.20;0.20;;;23.90;99.90;28.20;101214.00;;;;5017367;28;20171;-69
2023/08/28 15:00:55;;;;;;;0.10;0.10;;;23.80;99.90;28.50;101210.00;;;;5028441;28;20645;-69
2023/08/28 15:03:43;;;;;;;0.77;0.77;;;23.90;99.90;28.80;101211.00;;;;5031625;28;20191;-70
2023/08/28 15:06:18;;;;;;;0.20;0.20;;;24.20;99.90;28.60;101194.00;;;;5016662;28;20205;-69
2023/08/28 15:08:45;;;;;;;0.15;0.15;;;24.20;99.90;28.80;101209.00;;;;5031596;28;20274;-70
2023/08/28 15:11:27;;;;;;;0.10;0.10;;;24.30;99.90;28.90;101217.00;;;;5014991;28;20195;-70
2023/08/28 15:14:01;;;;;;;0.20;0.20;;;24.40;99.90;28.50;101222.00;;;;5031369;28;20269;-69
2023/08/28 15:16:35;;;;;;;0.10;0.10;;;24.50;99.90;29.10;101211.00;;;;5031267;28;20702;-69
2023/08/28 15:19:04;;;;;;;0.35;0.35;;;24.60;99.90;28.70;101188.00;;;;5016922;28;20189;-69
2023/08/28 15:21:30;;;;;;;0.82;0.82;;;24.60;99.90;27.60;101233.00;;;;5034638;28;20187;-69
2023/08/28 15:24:31;;;;;;;0.35;0.35;;;24.10;99.90;27.20;101239.00;;;;5035954;28;20195;-69
2023/08/28 15:27:21;;;;;;;0.10;0.10;;;23.50;99.90;27.10;101238.00;;;;5029422;28;20213;-69
2023/08/28 15:30:04;;;;;;;0.28;0.28;;;23.40;99.90;27.40;101246.00;;;;5013768;28;20844;-69
2023/08/28 15:32:30;;;;;;;2.13;1.95;;;23.20;99.90;27.10;101237.00;;;;5035684;28;20214;-70
2023/08/28 15:34:59;;;;;;;0.10;0.10;;;23.00;99.90;27.00;101242.00;;;;5034661;28;20245;-69
2023/08/28 15:37:35;;;;;;;0.10;0.10;;;22.90;99.90;26.80;101196.00;;;;5014791;28;20183;-70
2023/08/28 15:40:01;;;;;;;0.20;0.20;;;22.90;99.90;27.20;101225.00;;;;5066019;28;20186;-70
2023/08/28 15:43:08;;;;;;;0.57;0.57;;;22.90;99.90;27.20;101233.00;;;;5036377;28;20724;-69
2023/08/28 15:45:33;;;;;;;0.10;0.10;;;23.10;99.90;27.10;101228.00;;;;5033179;28;20206;-69
2023/08/28 15:47:59;;;;;;;0.47;0.43;;;22.90;99.90;26.90;101229.00;;;;5034727;28;20221;-70
2023/08/28 15:50:34;;;;;;;0.20;0.20;;;22.90;99.90;26.70;101226.00;;;;5034518;28;20233;-69
2023/08/28 15:53:12;;;;;;;1.65;1.10;;;22.70;99.90;25.80;101219.00;;;;5034509;28;20240;-69
2023/08/28 15:55:42;;;;;;;0.10;0.10;;;22.50;99.90;25.90;101158.00;;;;5035527;28;20178;-70
2023/08/28 15:58:15;;;;;;;0.30;0.30;;;22.20;99.90;25.10;101194.00;;;;5034133;28;20198;-70
2023/08/28 16:00:45;;;;;;;2.38;1.73;;;22.10;99.90;25.90;101172.00;;;;5034093;28;20252;-69
2023/08/28 16:03:14;;;;;;;2.50;0.40;;;22.10;99.90;25.80;101203.00;;;;5034121;28;20191;-70
2023/08/28 16:05:48;;;;;;;0.20;0.20;;;22.20;99.90;25.60;101160.00;;;;5033805;28;20218;-70
2023/08/28 16:08:14;;;;;;;0.10;0.10;;;22.00;99.90;26.30;101196.00;;;;5031963;28;20216;-71
2023/08/28 16:10:48;;;;;;;0.10;0.10;;;22.10;99.90;26.00;101188.00;;;;5031631;28;20209;-69
2023/08/28 16:13:15;;;;;;;0.22;0.22;;;22.20;99.90;26.40;101197.00;;;;5034234;28;20198;-70
2023/08/28 16:15:45;;;;;;;0.20;0.20;;;22.30;99.90;26.50;101192.00;;;;5033895;28;20641;-69
2023/08/28 16:18:23;;;;;;;0.30;0.30;;;22.30;99.90;26.00;101168.00;;;;5033851;28;20191;-69
2023/08/28 16:20:51;;;;;;;0.20;0.20;;;22.30;99.90;25.70;101193.00;;;;5033660;28;20206;-69
2023/08/28 16:23:17;;;;;;;0.57;0.57;;;22.10;99.90;25.50;101189.00;;;;5034243;28;20182;-69
2023/08/28 16:25:46;;;;;;;0.20;0.20;;;21.90;99.90;25.80;101192.00;;;;5034060;28;20198;-70
2023/08/28 16:28:18;;;;;;;0.10;0.10;;;21.80;99.90;25.90;101144.00;;;;5033670;28;20183;-69
2023/08/28 16:30:51;;;;;;;0.80;0.80;;;21.90;99.90;24.90;101187.00;;;;5033523;28;20194;-69
2023/08/28 16:33:26;;;;;;;0.30;0.30;;;21.80;99.90;25.50;101142.00;;;;5030711;28;20242;-69
2023/08/28 16:35:52;;;;;;;1.65;1.55;;;21.80;99.90;25.40;101163.00;;;;5033445;28;20190;-68
2023/08/28 16:38:30;;;;;;;0.45;0.45;;;21.60;99.90;25.20;101177.00;;;;5031524;28;20196;-69
2023/08/28 16:41:02;;;;;;;0.40;0.40;;;21.70;99.90;25.70;101179.00;;;;5033787;28;20187;-69
2023/08/28 16:43:29;;;;;;;0.20;0.20;;;21.70;99.90;25.30;101170.00;;;;5005288;28;20179;-69
2023/08/28 16:46:03;;;;;;;0.20;0.20;;;21.70;99.90;25.20;101185.00;;;;5027901;28;20187;-69
2023/08/28 16:48:28;;;;;;;0.10;0.10;;;21.70;99.90;25.20;101184.00;;;;5034307;28;20183;-70
2023/08/28 16:51:10;;;;;;;0.20;0.20;;;21.50;99.90;25.50;101170.00;;;;5034507;28;20707;-69
2023/08/28 16:53:37;;;;;;;1.25;1.25;;;21.40;99.90;26.00;101186.00;;;;5033714;28;20219;-70
2023/08/28 16:56:06;;;;;;;0.20;0.20;;;21.70;99.90;25.70;101182.00;;;;5030174;28;20183;-69
2023/08/28 16:58:32;;;;;;;0.20;0.20;;;21.80;99.90;25.90;101155.00;;;;5049703;28;20190;-69
2023/08/28 17:01:05;;;;;;;0.22;0.22;;;21.70;99.90;26.20;101201.00;;;;5032867;28;20240;-70
2023/08/28 17:03:40;;;;;;;0.20;0.20;;;22.00;99.90;26.40;101170.00;;;;5033722;28;20186;-69
2023/08/28 17:06:08;;;;;;;0.20;0.20;;;22.10;99.90;26.30;101181.00;;;;5033056;28;20193;-69
2023/08/28 17:08:37;;;;;;;0.20;0.20;;;22.20;99.90;26.60;101211.00;;;;5033240;28;20261;-69
2023/08/28 17:11:12;;;;;;;0.20;0.20;;;22.20;99.90;25.60;101225.00;;;;5032721;28;20197;-69
2023/08/28 17:13:40;;;;;;;0.20;0.20;;;22.10;99.90;25.90;101218.00;;;;5030969;28;20197;-69
2023/08/28 17:16:14;;;;;;;0.20;0.20;;;21.90;99.90;25.80;101201.00;;;;5058720;28;20194;-70
2023/08/28 17:18:47;;;;;;;0.77;0.77;;;21.80;99.90;25.90;101209.00;;;;5029567;28;20198;-68
2023/08/28 17:21:22;;;;;;;0.20;0.20;;;21.80;99.90;26.10;101221.00;;;;5031791;28;20187;-69
2023/08/28 17:23:48;;;;;;;0.20;0.20;;;21.90;99.90;25.60;101193.00;;;;5032641;28;20186;-69
2023/08/28 17:26:14;;;;;;;0.20;0.20;;;21.60;99.90;25.90;101194.00;;;;5033002;28;20633;-69
2023/08/28 17:28:54;;;;;;;0.28;0.28;;;21.70;99.90;25.70;101210.00;;;;5033844;28;20189;-69
2023/08/28 17:31:22;;;;;;;0.20;0.20;;;21.70;99.90;25.40;101198.00;;;;5033256;28;20278;-68
2023/08/28 17:33:51;;;;;;;0.25;0.25;;;21.50;99.90;25.70;101191.00;;;;5033825;28;20182;-69
2023/08/28 17:36:20;;;;;;;0.30;0.30;;;21.60;99.90;25.40;101206.00;;;;5032882;28;20215;-70
2023/08/28 17:39:16;;;;;;;0.20;0.20;;;21.50;99.90;25.90;101198.00;;;;5030753;28;20180;-69
2023/08/28 17:41:48;;;;;;;0.20;0.20;;;21.60;99.90;26.20;101212.00;;;;5024503;28;20211;-69
2023/08/28 17:44:37;;;;;;;0.20;0.20;;;21.80;99.90;26.10;101213.00;;;;5029327;28;20207;-69
2023/08/28 17:47:14;;;;;;;0.20;0.20;;;21.80;99.90;25.80;101191.00;;;;5024394;28;20199;-69
2023/08/28 17:49:43;;;;;;;0.20;0.20;;;21.60;99.90;26.00;101204.00;;;;5032596;28;20209;-69
2023/08/28 17:52:17;;;;;;;0.20;0.20;;;21.70;99.90;25.70;101210.00;;;;5032251;28;20217;-70
2023/08/28 17:54:44;;;;;;;0.20;0.20;;;21.60;99.90;25.80;101199.00;;;;5032114;28;20183;-69
2023/08/28 17:57:17;;;;;;;0.20;0.20;;;21.60;99.90;25.50;101201.00;;;;5014213;28;20673;-69
2023/08/28 17:59:44;;;;;;;0.20;0.20;;;21.40;99.90;26.00;101189.00;;;;5031849;28;20183;-69
2023/08/28 18:02:10;;;;;;;0.20;0.20;;;21.60;99.90;25.40;101204.00;;;;5032195;28;20551;-69
2023/08/28 18:04:39;;;;;;;0.20;0.20;;;21.50;99.90;25.40;101184.00;;;;5015614;28;20191;-69
2023/08/28 18:07:08;;;;;;;0.20;0.20;;;21.30;99.90;25.40;101203.00;;;;5031788;28;20548;-69
2023/08/28 18:09:40;;;;;;;0.50;0.50;;;21.40;99.90;25.20;101144.00;;;;5031929;28;20198;-69
2023/08/28 18:12:06;;;;;;;0.20;0.20;;;21.20;99.90;25.20;101192.00;;;;5032040;28;20656;-69
2023/08/28 18:14:35;;;;;;;0.20;0.20;;;21.20;99.90;25.20;101178.00;;;;5013372;28;20223;-69
2023/08/28 18:17:03;;;;;;;0.20;0.20;;;21.10;99.90;25.10;101175.00;;;;5032870;28;20181;-68
2023/08/28 18:19:34;;;;;;;0.20;0.20;;;21.10;99.90;25.00;101188.00;;;;5031884;28;20195;-69
2023/08/28 18:22:07;;;;;;;0.20;0.20;;;21.00;99.90;25.00;101170.00;;;;5032829;28;20209;-69
2023/08/28 18:24:33;;;;;;;0.20;0.20;;;21.00;99.90;25.10;101165.00;;;;5031647;28;20277;-68
2023/08/28 18:27:03;;;;;;;0.20;0.20;;;21.00;99.90;25.10;101176.00;;;;5015362;28;20285;-68